ADDS METAR Data INFO
IDs: Format: Raw Decoded Include TAF

Data at: 0456 UTC 25 May 2018

KELP 250451Z 00000KT 10SM CLR 28/M03 A3005 RMK AO2 SLP097 T02781033
KELP 250351Z 00000KT 10SM FEW250 31/M09 A3005 RMK AO2 SLP095 T03061089
KELP 250251Z 25007KT 10SM FEW250 31/M07 A3003 RMK AO2 SLP093 T03061072 53008
KELP 250151Z 25007KT 10SM FEW150 FEW250 32/M08 A3002 RMK AO2 SLP088 CB DSNT NE AND SE T03221083
KELP 250051Z 29007KT 10SM FEW150 FEW250 34/M08 A3001 RMK AO2 SLP085 CB DSNT NE AND E T03391083
KELP 242351Z 27005KT 10SM FEW150 FEW250 34/M08 A3001 RMK AO2 SLP083 CB DSNT E-SE T03441078 10356 20300 56017
KELP 242251Z VRB03KT 10SM FEW150 FEW250 34/M04 A3002 RMK AO2 SLP087 CB DSNT NE-SE T03441044
KELP 242151Z 00000KT 10SM FEW150 FEW250 34/M04 A3004 RMK AO2 SLP092 CB DSNT SE TCU DSNT E T03441039
KELP 242051Z 15007KT 10SM FEW130 SCT250 33/M01 A3006 RMK AO2 SLP102 CB DSNT E TCU DSNT E-SE T03331011 58017
KELP 241951Z COR VRB03KT 10SM FEW130 FEW250 33/M01 A3008 RMK AO2 SLP110 TCU DSNT E T03281006
KELP 241851Z 00000KT 10SM FEW120 SCT250 32/00 A3010 RMK AO2 SLP117 T03220000
KELP 241751Z 00000KT 10SM FEW100 SCT250 31/03 A3012 RMK AO2 SLP122 T03060033 10311 20200 58003
KELP 241651Z 00000KT 10SM SCT250 28/06 A3013 RMK AO2 SLP126 T02830056
KELP 241551Z 18003KT 10SM SCT250 26/10 A3013 RMK AO2 SLP131 T02560100
KELP 241451Z 16006KT 10SM FEW250 24/11 A3013 RMK AO2 SLP128 T02390111 51011
KELP 241351Z 14003KT 10SM FEW150 22/11 A3012 RMK AO2 SLP123 T02170111
KELP 241251Z 00000KT 10SM CLR 21/11 A3010 RMK AO2 SLP119 T02060106
KELP 241151Z 16003KT 10SM CLR 21/09 A3009 RMK AO2 SLP113 T02060094 10239 20206 52006
KELP 241051Z 00000KT 10SM CLR 21/09 A3008 RMK AO2 SLP110 T02110089
KELP 240951Z 36003KT 10SM CLR 22/08 A3008 RMK AO2 SLP106 T02220083
KELP 240851Z 04005KT 10SM CLR 22/08 A3007 RMK AO2 SLP107 T02170083 50003
KELP 240751Z 16004KT 10SM CLR 22/08 A3008 RMK AO2 SLP109 T02220083
KELP 240651Z VRB03KT 10SM CLR 22/08 A3008 RMK AO2 SLP110 T02220083 403390178
KELP 240551Z 14007KT 10SM CLR 24/08 A3006 RMK AO2 SLP103 T02390083 10333 20239 51029
KELP 240451Z 13008KT 10SM CLR 24/09 A3004 RMK AO2 SLP098 T02440089
KELP 240351Z 10012KT 10SM CLR 26/08 A3000 RMK AO2 SLP082 T02560083
KELP 240251Z 06005KT 10SM CLR 28/M01 A2996 RMK AO2 SLP070 T02781006 53014
KELP 240151Z 30004KT 10SM FEW150 FEW250 31/M07 A2994 RMK AO2 SLP063 T03111072
KELP 240051Z 25011KT 10SM FEW160 FEW250 33/M08 A2993 RMK AO2 SLP059 CB DSNT E-SE T03281083
KELP 232351Z 24011G17KT 10SM FEW160 33/M07 A2992 RMK AO2 SLP056 CB DSNT NE AND E-SE T03331072 10339 20294 56018
KELP 232251Z 27012G25KT 10SM FEW160 33/M06 A2992 RMK AO2 SLP053 CB DSNT NE-SE T03331061
KELP 232151Z 22013G17KT 10SM FEW150 34/M05 A2995 RMK AO2 SLP064 CB DSNT NE AND E-SE T03391050
KELP 232051Z 10004KT 10SM FEW150 31/M05 A2998 RMK AO2 SLP074 CB DSNT NE AND E-SE T03111050 58015
KELP 231951Z 24010G18KT 10SM FEW140 32/M04 A3000 RMK AO2 SLP079 CB DSNT NE AND E-SE T03221039
KELP 231851Z VRB03KT 10SM FEW130 31/M03 A3002 RMK AO2 SLP086 CB DSNT NE AND E T03061033
KELP 231751Z 26005KT 10SM FEW130 30/M04 A3002 RMK AO2 SLP089 TCU DSNT E T03001039 10300 20178 50000